sensor_id;sensor_type;location;lat;lon;timestamp;P1;durP1;ratioP1;P2;durP2;ratioP2
16813;SDS011;8524;57.650;11.926;2023-05-19T00:02:15;2.90;;;2.17;;
16813;SDS011;8524;57.650;11.926;2023-05-19T00:04:45;2.27;;;1.97;;
16813;SDS011;8524;57.650;11.926;2023-05-19T00:07:15;2.72;;;2.40;;
16813;SDS011;8524;57.650;11.926;2023-05-19T00:09:44;3.37;;;2.43;;
16813;SDS011;8524;57.650;11.926;2023-05-19T00:12:12;2.67;;;2.33;;
16813;SDS011;8524;57.650;11.926;2023-05-19T00:14:40;3.63;;;2.23;;
16813;SDS011;8524;57.650;11.926;2023-05-19T00:17:07;3.57;;;2.33;;
16813;SDS011;8524;57.650;11.926;2023-05-19T00:19:35;3.10;;;2.50;;
16813;SDS011;8524;57.650;11.926;2023-05-19T00:22:02;3.77;;;2.53;;
16813;SDS011;8524;57.650;11.926;2023-05-19T00:24:31;2.80;;;2.17;;
16813;SDS011;8524;57.650;11.926;2023-05-19T00:26:58;3.90;;;2.40;;
16813;SDS011;8524;57.650;11.926;2023-05-19T00:29:25;3.30;;;2.47;;
16813;SDS011;8524;57.650;11.926;2023-05-19T00:31:52;3.40;;;2.17;;
16813;SDS011;8524;57.650;11.926;2023-05-19T00:34:19;3.67;;;2.60;;
16813;SDS011;8524;57.650;11.926;2023-05-19T00:36:46;2.43;;;2.20;;
16813;SDS011;8524;57.650;11.926;2023-05-19T00:39:13;3.10;;;2.77;;
16813;SDS011;8524;57.650;11.926;2023-05-19T00:41:41;3.93;;;2.80;;
16813;SDS011;8524;57.650;11.926;2023-05-19T00:44:08;3.80;;;2.63;;
16813;SDS011;8524;57.650;11.926;2023-05-19T00:46:35;2.83;;;2.33;;
16813;SDS011;8524;57.650;11.926;2023-05-19T00:49:02;2.53;;;2.00;;
16813;SDS011;8524;57.650;11.926;2023-05-19T00:51:30;3.23;;;2.30;;
16813;SDS011;8524;57.650;11.926;2023-05-19T00:53:57;3.33;;;2.40;;
16813;SDS011;8524;57.650;11.926;2023-05-19T00:56:24;3.80;;;2.30;;
16813;SDS011;8524;57.650;11.926;2023-05-19T00:58:53;3.03;;;2.20;;
16813;SDS011;8524;57.650;11.926;2023-05-19T01:01:20;3.13;;;2.33;;
16813;SDS011;8524;57.650;11.926;2023-05-19T01:03:47;3.00;;;2.60;;
16813;SDS011;8524;57.650;11.926;2023-05-19T01:06:15;2.77;;;2.37;;
16813;SDS011;8524;57.650;11.926;2023-05-19T01:08:43;3.80;;;2.50;;
16813;SDS011;8524;57.650;11.926;2023-05-19T01:11:10;3.80;;;2.50;;
16813;SDS011;8524;57.650;11.926;2023-05-19T01:13:37;4.83;;;2.90;;
16813;SDS011;8524;57.650;11.926;2023-05-19T01:16:08;3.07;;;2.30;;
16813;SDS011;8524;57.650;11.926;2023-05-19T01:18:42;3.03;;;2.10;;
16813;SDS011;8524;57.650;11.926;2023-05-19T01:24:15;3.37;;;2.20;;
16813;SDS011;8524;57.650;11.926;2023-05-19T01:27:07;2.57;;;2.33;;
16813;SDS011;8524;57.650;11.926;2023-05-19T01:29:51;2.47;;;2.27;;
16813;SDS011;8524;57.650;11.926;2023-05-19T01:32:51;3.40;;;2.13;;
16813;SDS011;8524;57.650;11.926;2023-05-19T01:35:20;2.13;;;1.93;;
16813;SDS011;8524;57.650;11.926;2023-05-19T01:37:51;2.70;;;2.50;;
16813;SDS011;8524;57.650;11.926;2023-05-19T01:40:20;2.27;;;2.07;;
16813;SDS011;8524;57.650;11.926;2023-05-19T01:42:48;3.70;;;2.20;;
16813;SDS011;8524;57.650;11.926;2023-05-19T01:45:16;2.73;;;2.37;;
16813;SDS011;8524;57.650;11.926;2023-05-19T01:47:45;2.97;;;2.70;;
16813;SDS011;8524;57.650;11.926;2023-05-19T01:50:16;3.27;;;2.70;;
16813;SDS011;8524;57.650;11.926;2023-05-19T01:52:43;2.33;;;2.10;;
16813;SDS011;8524;57.650;11.926;2023-05-19T01:55:10;2.73;;;2.00;;
16813;SDS011;8524;57.650;11.926;2023-05-19T01:57:40;2.67;;;2.33;;
16813;SDS011;8524;57.650;11.926;2023-05-19T02:00:15;3.90;;;2.40;;
16813;SDS011;8524;57.650;11.926;2023-05-19T02:02:52;2.60;;;2.13;;
16813;SDS011;8524;57.650;11.926;2023-05-19T02:05:33;2.87;;;2.63;;
16813;SDS011;8524;57.650;11.926;2023-05-19T02:08:09;2.50;;;2.20;;
16813;SDS011;8524;57.650;11.926;2023-05-19T02:10:40;3.87;;;2.70;;
16813;SDS011;8524;57.650;11.926;2023-05-19T02:13:12;3.67;;;2.50;;
16813;SDS011;8524;57.650;11.926;2023-05-19T02:15:42;2.23;;;2.03;;
16813;SDS011;8524;57.650;11.926;2023-05-19T02:18:11;2.87;;;2.50;;
16813;SDS011;8524;57.650;11.926;2023-05-19T02:20:43;4.37;;;2.70;;
16813;SDS011;8524;57.650;11.926;2023-05-19T02:23:10;3.50;;;2.30;;
16813;SDS011;8524;57.650;11.926;2023-05-19T02:25:37;2.77;;;2.50;;
16813;SDS011;8524;57.650;11.926;2023-05-19T02:28:04;4.10;;;2.60;;
16813;SDS011;8524;57.650;11.926;2023-05-19T02:30:31;2.20;;;2.00;;
16813;SDS011;8524;57.650;11.926;2023-05-19T02:32:58;3.67;;;2.20;;
16813;SDS011;8524;57.650;11.926;2023-05-19T02:35:25;3.63;;;2.40;;
16813;SDS011;8524;57.650;11.926;2023-05-19T02:37:54;3.57;;;2.50;;
16813;SDS011;8524;57.650;11.926;2023-05-19T02:40:21;1.93;;;1.80;;
16813;SDS011;8524;57.650;11.926;2023-05-19T02:42:48;3.93;;;2.13;;
16813;SDS011;8524;57.650;11.926;2023-05-19T02:45:15;4.00;;;2.23;;
16813;SDS011;8524;57.650;11.926;2023-05-19T02:47:43;2.53;;;2.33;;
16813;SDS011;8524;57.650;11.926;2023-05-19T02:50:10;3.67;;;2.30;;
16813;SDS011;8524;57.650;11.926;2023-05-19T02:52:37;2.57;;;2.17;;
16813;SDS011;8524;57.650;11.926;2023-05-19T02:55:05;2.77;;;2.27;;
16813;SDS011;8524;57.650;11.926;2023-05-19T02:57:33;2.57;;;2.33;;
16813;SDS011;8524;57.650;11.926;2023-05-19T03:00:00;2.70;;;1.87;;
16813;SDS011;8524;57.650;11.926;2023-05-19T03:02:29;2.95;;;2.30;;
16813;SDS011;8524;57.650;11.926;2023-05-19T03:04:57;4.60;;;2.60;;
16813;SDS011;8524;57.650;11.926;2023-05-19T03:07:25;3.67;;;2.27;;
16813;SDS011;8524;57.650;11.926;2023-05-19T03:09:52;2.60;;;2.17;;
16813;SDS011;8524;57.650;11.926;2023-05-19T03:12:21;2.70;;;2.37;;
16813;SDS011;8524;57.650;11.926;2023-05-19T03:14:48;2.40;;;2.20;;
16813;SDS011;8524;57.650;11.926;2023-05-19T03:17:15;2.60;;;2.30;;
16813;SDS011;8524;57.650;11.926;2023-05-19T03:19:42;3.53;;;2.50;;
16813;SDS011;8524;57.650;11.926;2023-05-19T03:22:09;2.97;;;2.43;;
16813;SDS011;8524;57.650;11.926;2023-05-19T03:24:36;2.20;;;2.00;;
16813;SDS011;8524;57.650;11.926;2023-05-19T03:27:03;2.13;;;2.00;;
16813;SDS011;8524;57.650;11.926;2023-05-19T03:29:32;2.27;;;1.97;;
16813;SDS011;8524;57.650;11.926;2023-05-19T03:31:59;2.93;;;2.60;;
16813;SDS011;8524;57.650;11.926;2023-05-19T03:34:26;3.10;;;2.47;;
16813;SDS011;8524;57.650;11.926;2023-05-19T03:36:53;2.50;;;2.30;;
16813;SDS011;8524;57.650;11.926;2023-05-19T03:39:20;3.20;;;2.40;;
16813;SDS011;8524;57.650;11.926;2023-05-19T03:41:47;2.40;;;2.20;;
16813;SDS011;8524;57.650;11.926;2023-05-19T03:44:14;2.63;;;2.43;;
16813;SDS011;8524;57.650;11.926;2023-05-19T03:46:43;2.30;;;2.10;;
16813;SDS011;8524;57.650;11.926;2023-05-19T03:49:10;3.47;;;2.17;;
16813;SDS011;8524;57.650;11.926;2023-05-19T03:51:37;3.00;;;2.20;;
16813;SDS011;8524;57.650;11.926;2023-05-19T03:54:05;3.43;;;2.47;;
16813;SDS011;8524;57.650;11.926;2023-05-19T03:56:32;2.90;;;2.40;;
16813;SDS011;8524;57.650;11.926;2023-05-19T03:58:59;2.57;;;2.13;;
16813;SDS011;8524;57.650;11.926;2023-05-19T04:01:26;2.73;;;2.33;;
16813;SDS011;8524;57.650;11.926;2023-05-19T04:03:55;2.93;;;2.47;;
16813;SDS011;8524;57.650;11.926;2023-05-19T04:06:22;3.20;;;2.50;;
16813;SDS011;8524;57.650;11.926;2023-05-19T04:08:49;2.83;;;2.60;;
16813;SDS011;8524;57.650;11.926;2023-05-19T04:11:16;2.10;;;1.90;;
16813;SDS011;8524;57.650;11.926;2023-05-19T04:13:44;3.53;;;2.50;;
16813;SDS011;8524;57.650;11.926;2023-05-19T04:16:11;3.80;;;2.40;;
16813;SDS011;8524;57.650;11.926;2023-05-19T04:18:38;5.73;;;2.63;;
16813;SDS011;8524;57.650;11.926;2023-05-19T04:21:06;3.77;;;2.90;;
16813;SDS011;8524;57.650;11.926;2023-05-19T04:23:33;3.10;;;2.80;;
16813;SDS011;8524;57.650;11.926;2023-05-19T04:26:00;4.07;;;2.90;;
16813;SDS011;8524;57.650;11.926;2023-05-19T04:28:27;3.23;;;2.80;;
16813;SDS011;8524;57.650;11.926;2023-05-19T04:30:55;4.90;;;3.10;;
16813;SDS011;8524;57.650;11.926;2023-05-19T04:33:22;3.80;;;2.90;;
16813;SDS011;8524;57.650;11.926;2023-05-19T04:35:49;3.53;;;2.73;;
16813;SDS011;8524;57.650;11.926;2023-05-19T04:38:18;2.80;;;2.60;;
16813;SDS011;8524;57.650;11.926;2023-05-19T04:40:46;3.60;;;3.17;;
16813;SDS011;8524;57.650;11.926;2023-05-19T04:43:14;3.00;;;2.43;;
16813;SDS011;8524;57.650;11.926;2023-05-19T04:45:42;4.20;;;3.27;;
16813;SDS011;8524;57.650;11.926;2023-05-19T04:48:09;3.03;;;2.37;;
16813;SDS011;8524;57.650;11.926;2023-05-19T04:50:36;3.70;;;2.70;;
16813;SDS011;8524;57.650;11.926;2023-05-19T04:53:06;3.93;;;3.13;;
16813;SDS011;8524;57.650;11.926;2023-05-19T04:55:34;3.37;;;3.00;;
16813;SDS011;8524;57.650;11.926;2023-05-19T04:58:03;6.07;;;3.13;;
16813;SDS011;8524;57.650;11.926;2023-05-19T05:00:30;4.73;;;3.00;;
16813;SDS011;8524;57.650;11.926;2023-05-19T05:02:59;4.43;;;2.80;;
16813;SDS011;8524;57.650;11.926;2023-05-19T05:05:29;4.23;;;2.70;;
16813;SDS011;8524;57.650;11.926;2023-05-19T05:07:56;4.47;;;2.90;;
16813;SDS011;8524;57.650;11.926;2023-05-19T05:10:24;3.97;;;2.90;;
16813;SDS011;8524;57.650;11.926;2023-05-19T05:12:52;2.97;;;2.57;;
16813;SDS011;8524;57.650;11.926;2023-05-19T05:15:20;2.97;;;2.53;;
16813;SDS011;8524;57.650;11.926;2023-05-19T05:17:48;3.20;;;2.80;;
16813;SDS011;8524;57.650;11.926;2023-05-19T05:20:16;4.80;;;2.90;;
16813;SDS011;8524;57.650;11.926;2023-05-19T05:22:45;3.90;;;2.77;;
16813;SDS011;8524;57.650;11.926;2023-05-19T05:25:13;3.30;;;2.70;;
16813;SDS011;8524;57.650;11.926;2023-05-19T05:27:41;4.20;;;2.43;;
16813;SDS011;8524;57.650;11.926;2023-05-19T05:30:10;4.13;;;2.90;;
16813;SDS011;8524;57.650;11.926;2023-05-19T05:32:37;2.50;;;2.30;;
16813;SDS011;8524;57.650;11.926;2023-05-19T05:35:05;2.93;;;2.13;;
16813;SDS011;8524;57.650;11.926;2023-05-19T05:37:32;3.60;;;2.47;;
16813;SDS011;8524;57.650;11.926;2023-05-19T05:39:59;3.77;;;2.30;;
16813;SDS011;8524;57.650;11.926;2023-05-19T05:42:26;2.90;;;2.07;;
16813;SDS011;8524;57.650;11.926;2023-05-19T05:44:53;3.60;;;2.20;;
16813;SDS011;8524;57.650;11.926;2023-05-19T05:47:22;3.07;;;2.37;;
16813;SDS011;8524;57.650;11.926;2023-05-19T05:49:49;4.20;;;2.53;;
16813;SDS011;8524;57.650;11.926;2023-05-19T05:52:16;3.57;;;2.10;;
16813;SDS011;8524;57.650;11.926;2023-05-19T05:54:46;4.10;;;2.57;;
16813;SDS011;8524;57.650;11.926;2023-05-19T05:57:13;3.23;;;2.30;;
16813;SDS011;8524;57.650;11.926;2023-05-19T05:59:41;2.53;;;2.10;;
16813;SDS011;8524;57.650;11.926;2023-05-19T06:02:09;3.57;;;2.33;;
16813;SDS011;8524;57.650;11.926;2023-05-19T06:04:37;3.40;;;2.10;;
16813;SDS011;8524;57.650;11.926;2023-05-19T06:07:04;2.97;;;2.10;;
16813;SDS011;8524;57.650;11.926;2023-05-19T06:09:31;5.47;;;2.57;;
16813;SDS011;8524;57.650;11.926;2023-05-19T06:11:58;4.10;;;2.40;;
16813;SDS011;8524;57.650;11.926;2023-05-19T06:14:25;3.50;;;2.07;;
16813;SDS011;8524;57.650;11.926;2023-05-19T06:16:53;2.60;;;1.80;;
16813;SDS011;8524;57.650;11.926;2023-05-19T06:19:20;2.10;;;1.90;;
16813;SDS011;8524;57.650;11.926;2023-05-19T06:21:50;2.97;;;2.30;;
16813;SDS011;8524;57.650;11.926;2023-05-19T06:24:17;3.47;;;2.20;;
16813;SDS011;8524;57.650;11.926;2023-05-19T06:26:44;5.40;;;1.70;;
16813;SDS011;8524;57.650;11.926;2023-05-19T06:29:11;3.50;;;1.87;;
16813;SDS011;8524;57.650;11.926;2023-05-19T06:31:38;4.03;;;1.80;;
16813;SDS011;8524;57.650;11.926;2023-05-19T06:34:05;3.13;;;1.63;;
16813;SDS011;8524;57.650;11.926;2023-05-19T06:36:34;3.83;;;1.83;;
16813;SDS011;8524;57.650;11.926;2023-05-19T06:39:02;2.70;;;1.70;;
16813;SDS011;8524;57.650;11.926;2023-05-19T06:41:29;2.57;;;1.73;;
16813;SDS011;8524;57.650;11.926;2023-05-19T06:43:56;4.37;;;1.93;;
16813;SDS011;8524;57.650;11.926;2023-05-19T06:46:23;3.10;;;1.70;;
16813;SDS011;8524;57.650;11.926;2023-05-19T06:48:50;2.43;;;1.50;;
16813;SDS011;8524;57.650;11.926;2023-05-19T06:51:17;3.37;;;1.83;;
16813;SDS011;8524;57.650;11.926;2023-05-19T06:53:46;2.27;;;1.50;;
16813;SDS011;8524;57.650;11.926;2023-05-19T06:56:14;3.10;;;1.80;;
16813;SDS011;8524;57.650;11.926;2023-05-19T06:58:42;2.57;;;1.83;;
16813;SDS011;8524;57.650;11.926;2023-05-19T07:01:09;3.80;;;1.70;;
16813;SDS011;8524;57.650;11.926;2023-05-19T07:03:36;4.07;;;1.80;;
16813;SDS011;8524;57.650;11.926;2023-05-19T07:06:04;2.67;;;1.70;;
16813;SDS011;8524;57.650;11.926;2023-05-19T07:08:31;3.40;;;1.83;;
16813;SDS011;8524;57.650;11.926;2023-05-19T07:10:58;3.33;;;1.63;;
16813;SDS011;8524;57.650;11.926;2023-05-19T07:13:26;3.50;;;1.70;;
16813;SDS011;8524;57.650;11.926;2023-05-19T07:15:53;3.30;;;1.67;;
16813;SDS011;8524;57.650;11.926;2023-05-19T07:18:20;2.30;;;1.70;;
16813;SDS011;8524;57.650;11.926;2023-05-19T07:20:48;4.10;;;1.83;;
16813;SDS011;8524;57.650;11.926;2023-05-19T07:23:16;4.13;;;1.80;;
16813;SDS011;8524;57.650;11.926;2023-05-19T07:25:43;3.47;;;1.83;;
16813;SDS011;8524;57.650;11.926;2023-05-19T07:28:10;4.10;;;1.97;;
16813;SDS011;8524;57.650;11.926;2023-05-19T07:30:39;4.03;;;1.80;;
16813;SDS011;8524;57.650;11.926;2023-05-19T07:33:06;3.50;;;1.83;;
16813;SDS011;8524;57.650;11.926;2023-05-19T07:35:33;3.50;;;1.77;;
16813;SDS011;8524;57.650;11.926;2023-05-19T07:38:00;2.67;;;1.70;;
16813;SDS011;8524;57.650;11.926;2023-05-19T07:40:27;2.13;;;1.50;;
16813;SDS011;8524;57.650;11.926;2023-05-19T07:42:54;3.13;;;1.90;;
16813;SDS011;8524;57.650;11.926;2023-05-19T07:45:21;2.80;;;1.63;;
16813;SDS011;8524;57.650;11.926;2023-05-19T07:47:50;2.97;;;1.50;;
16813;SDS011;8524;57.650;11.926;2023-05-19T07:50:18;3.80;;;1.80;;
16813;SDS011;8524;57.650;11.926;2023-05-19T07:52:45;3.80;;;1.80;;
16813;SDS011;8524;57.650;11.926;2023-05-19T07:55:12;3.40;;;2.00;;
16813;SDS011;8524;57.650;11.926;2023-05-19T07:57:39;3.60;;;1.90;;
16813;SDS011;8524;57.650;11.926;2023-05-19T08:00:07;4.03;;;1.90;;
16813;SDS011;8524;57.650;11.926;2023-05-19T08:02:36;2.97;;;1.90;;
16813;SDS011;8524;57.650;11.926;2023-05-19T08:05:05;2.80;;;1.60;;
16813;SDS011;8524;57.650;11.926;2023-05-19T08:07:33;4.00;;;2.20;;
16813;SDS011;8524;57.650;11.926;2023-05-19T08:10:00;3.33;;;1.67;;
16813;SDS011;8524;57.650;11.926;2023-05-19T08:12:27;4.40;;;1.93;;
16813;SDS011;8524;57.650;11.926;2023-05-19T08:14:54;3.00;;;1.50;;
16813;SDS011;8524;57.650;11.926;2023-05-19T08:17:21;3.90;;;1.90;;
16813;SDS011;8524;57.650;11.926;2023-05-19T08:19:48;3.23;;;1.50;;
16813;SDS011;8524;57.650;11.926;2023-05-19T08:22:17;3.13;;;1.90;;
16813;SDS011;8524;57.650;11.926;2023-05-19T08:24:44;2.40;;;1.70;;
16813;SDS011;8524;57.650;11.926;2023-05-19T08:27:13;2.80;;;1.40;;
16813;SDS011;8524;57.650;11.926;2023-05-19T08:29:40;4.17;;;1.60;;
16813;SDS011;8524;57.650;11.926;2023-05-19T08:32:07;3.00;;;1.40;;
16813;SDS011;8524;57.650;11.926;2023-05-19T08:34:34;3.80;;;1.53;;
16813;SDS011;8524;57.650;11.926;2023-05-19T08:37:01;2.40;;;1.70;;
16813;SDS011;8524;57.650;11.926;2023-05-19T08:39:30;3.03;;;1.57;;
16813;SDS011;8524;57.650;11.926;2023-05-19T08:41:58;3.00;;;1.67;;
16813;SDS011;8524;57.650;11.926;2023-05-19T08:44:26;2.80;;;1.60;;
16813;SDS011;8524;57.650;11.926;2023-05-19T08:46:54;2.23;;;1.60;;
16813;SDS011;8524;57.650;11.926;2023-05-19T08:49:25;1.70;;;1.30;;
16813;SDS011;8524;57.650;11.926;2023-05-19T08:51:57;3.03;;;1.80;;
16813;SDS011;8524;57.650;11.926;2023-05-19T08:54:35;2.67;;;1.80;;
16813;SDS011;8524;57.650;11.926;2023-05-19T08:57:07;3.23;;;1.50;;
16813;SDS011;8524;57.650;11.926;2023-05-19T08:59:35;2.30;;;1.40;;
16813;SDS011;8524;57.650;11.926;2023-05-19T09:02:04;1.93;;;1.40;;
16813;SDS011;8524;57.650;11.926;2023-05-19T09:04:33;2.80;;;1.37;;
16813;SDS011;8524;57.650;11.926;2023-05-19T09:07:00;3.33;;;2.03;;
16813;SDS011;8524;57.650;11.926;2023-05-19T09:09:28;2.87;;;1.40;;
16813;SDS011;8524;57.650;11.926;2023-05-19T09:11:57;3.33;;;1.93;;
16813;SDS011;8524;57.650;11.926;2023-05-19T09:14:24;5.13;;;2.03;;
16813;SDS011;8524;57.650;11.926;2023-05-19T09:16:51;3.07;;;1.73;;
16813;SDS011;8524;57.650;11.926;2023-05-19T09:19:19;3.03;;;1.80;;
16813;SDS011;8524;57.650;11.926;2023-05-19T09:21:49;3.70;;;1.87;;
16813;SDS011;8524;57.650;11.926;2023-05-19T09:24:24;4.17;;;2.10;;
16813;SDS011;8524;57.650;11.926;2023-05-19T09:26:52;3.67;;;1.80;;
16813;SDS011;8524;57.650;11.926;2023-05-19T09:29:22;3.43;;;1.90;;
16813;SDS011;8524;57.650;11.926;2023-05-19T09:31:50;4.57;;;1.90;;
16813;SDS011;8524;57.650;11.926;2023-05-19T09:34:18;2.60;;;1.80;;
16813;SDS011;8524;57.650;11.926;2023-05-19T09:36:46;2.70;;;1.70;;
16813;SDS011;8524;57.650;11.926;2023-05-19T09:39:15;2.83;;;1.70;;
16813;SDS011;8524;57.650;11.926;2023-05-19T09:41:43;3.53;;;1.87;;
16813;SDS011;8524;57.650;11.926;2023-05-19T09:44:20;3.17;;;1.77;;
16813;SDS011;8524;57.650;11.926;2023-05-19T09:46:49;5.43;;;1.77;;
16813;SDS011;8524;57.650;11.926;2023-05-19T09:49:20;1.57;;;1.47;;
16813;SDS011;8524;57.650;11.926;2023-05-19T09:51:49;2.87;;;1.80;;
16813;SDS011;8524;57.650;11.926;2023-05-19T09:54:18;3.43;;;2.07;;
16813;SDS011;8524;57.650;11.926;2023-05-19T09:56:50;2.93;;;2.10;;
16813;SDS011;8524;57.650;11.926;2023-05-19T09:59:18;4.83;;;2.00;;
16813;SDS011;8524;57.650;11.926;2023-05-19T10:01:50;2.87;;;2.00;;
16813;SDS011;8524;57.650;11.926;2023-05-19T10:04:19;2.87;;;1.80;;
16813;SDS011;8524;57.650;11.926;2023-05-19T10:06:47;2.70;;;1.83;;
16813;SDS011;8524;57.650;11.926;2023-05-19T10:09:18;4.67;;;2.13;;
16813;SDS011;8524;57.650;11.926;2023-05-19T10:11:48;3.13;;;1.80;;
16813;SDS011;8524;57.650;11.926;2023-05-19T10:14:18;3.07;;;1.93;;
16813;SDS011;8524;57.650;11.926;2023-05-19T10:16:47;3.97;;;2.20;;
16813;SDS011;8524;57.650;11.926;2023-05-19T10:19:19;7.00;;;2.90;;
16813;SDS011;8524;57.650;11.926;2023-05-19T10:21:47;4.53;;;2.10;;
16813;SDS011;8524;57.650;11.926;2023-05-19T10:24:14;3.57;;;2.17;;
16813;SDS011;8524;57.650;11.926;2023-05-19T10:26:43;4.73;;;2.57;;
16813;SDS011;8524;57.650;11.926;2023-05-19T10:29:11;3.43;;;2.10;;
16813;SDS011;8524;57.650;11.926;2023-05-19T10:31:42;4.23;;;2.30;;
16813;SDS011;8524;57.650;11.926;2023-05-19T10:34:26;3.70;;;2.10;;
16813;SDS011;8524;57.650;11.926;2023-05-19T10:37:09;5.43;;;2.00;;
16813;SDS011;8524;57.650;11.926;2023-05-19T10:39:42;5.07;;;2.10;;
16813;SDS011;8524;57.650;11.926;2023-05-19T10:42:11;2.77;;;1.63;;
16813;SDS011;8524;57.650;11.926;2023-05-19T10:44:45;3.00;;;2.10;;
16813;SDS011;8524;57.650;11.926;2023-05-19T10:47:23;3.80;;;1.70;;
16813;SDS011;8524;57.650;11.926;2023-05-19T10:49:52;2.40;;;1.40;;
16813;SDS011;8524;57.650;11.926;2023-05-19T10:52:20;2.50;;;1.80;;
16813;SDS011;8524;57.650;11.926;2023-05-19T10:54:49;2.40;;;1.60;;
16813;SDS011;8524;57.650;11.926;2023-05-19T10:57:18;1.97;;;1.40;;
16813;SDS011;8524;57.650;11.926;2023-05-19T10:59:50;2.30;;;1.30;;
16813;SDS011;8524;57.650;11.926;2023-05-19T11:05:07;1.70;;;1.00;;
16813;SDS011;8524;57.650;11.926;2023-05-19T11:07:34;1.73;;;1.33;;
16813;SDS011;8524;57.650;11.926;2023-05-19T11:10:05;1.43;;;1.33;;
16813;SDS011;8524;57.650;11.926;2023-05-19T11:12:43;2.17;;;1.67;;
16813;SDS011;8524;57.650;11.926;2023-05-19T11:15:11;1.70;;;1.60;;
16813;SDS011;8524;57.650;11.926;2023-05-19T11:17:40;1.97;;;1.53;;
16813;SDS011;8524;57.650;11.926;2023-05-19T11:20:20;2.73;;;1.27;;
16813;SDS011;8524;57.650;11.926;2023-05-19T11:23:04;1.27;;;1.13;;
16813;SDS011;8524;57.650;11.926;2023-05-19T11:25:41;2.10;;;1.30;;
16813;SDS011;8524;57.650;11.926;2023-05-19T11:28:09;1.57;;;1.40;;
16813;SDS011;8524;57.650;11.926;2023-05-19T11:30:37;1.50;;;1.40;;
16813;SDS011;8524;57.650;11.926;2023-05-19T11:33:07;1.40;;;1.30;;
16813;SDS011;8524;57.650;11.926;2023-05-19T11:35:36;2.27;;;1.57;;
16813;SDS011;8524;57.650;11.926;2023-05-19T11:38:04;1.50;;;1.17;;
16813;SDS011;8524;57.650;11.926;2023-05-19T11:40:31;2.13;;;1.50;;
16813;SDS011;8524;57.650;11.926;2023-05-19T11:42:59;2.70;;;1.60;;
16813;SDS011;8524;57.650;11.926;2023-05-19T11:45:27;1.90;;;1.40;;
16813;SDS011;8524;57.650;11.926;2023-05-19T11:47:56;1.73;;;1.50;;
16813;SDS011;8524;57.650;11.926;2023-05-19T11:50:24;2.13;;;1.40;;
16813;SDS011;8524;57.650;11.926;2023-05-19T11:52:53;1.97;;;1.23;;
16813;SDS011;8524;57.650;11.926;2023-05-19T11:55:21;2.67;;;1.73;;
16813;SDS011;8524;57.650;11.926;2023-05-19T11:57:58;1.57;;;1.40;;
16813;SDS011;8524;57.650;11.926;2023-05-19T12:00:26;3.53;;;1.80;;
16813;SDS011;8524;57.650;11.926;2023-05-19T12:02:54;2.27;;;1.60;;
16813;SDS011;8524;57.650;11.926;2023-05-19T12:05:22;2.20;;;1.90;;
16813;SDS011;8524;57.650;11.926;2023-05-19T12:07:51;2.03;;;1.43;;
16813;SDS011;8524;57.650;11.926;2023-05-19T12:10:21;2.40;;;1.70;;
16813;SDS011;8524;57.650;11.926;2023-05-19T12:12:49;3.07;;;1.70;;
16813;SDS011;8524;57.650;11.926;2023-05-19T12:15:17;2.47;;;1.53;;
16813;SDS011;8524;57.650;11.926;2023-05-19T12:17:47;2.83;;;1.87;;
16813;SDS011;8524;57.650;11.926;2023-05-19T12:20:15;3.70;;;2.10;;
16813;SDS011;8524;57.650;11.926;2023-05-19T12:22:42;4.10;;;1.57;;
16813;SDS011;8524;57.650;11.926;2023-05-19T12:25:11;2.13;;;1.53;;
16813;SDS011;8524;57.650;11.926;2023-05-19T12:27:38;3.83;;;1.50;;
16813;SDS011;8524;57.650;11.926;2023-05-19T12:30:09;2.67;;;1.53;;
16813;SDS011;8524;57.650;11.926;2023-05-19T12:32:37;3.30;;;1.70;;
16813;SDS011;8524;57.650;11.926;2023-05-19T12:35:05;3.00;;;2.57;;
16813;SDS011;8524;57.650;11.926;2023-05-19T12:37:32;2.50;;;1.80;;
16813;SDS011;8524;57.650;11.926;2023-05-19T12:40:00;1.87;;;1.50;;
16813;SDS011;8524;57.650;11.926;2023-05-19T12:42:29;1.80;;;1.57;;
16813;SDS011;8524;57.650;11.926;2023-05-19T12:44:57;1.23;;;1.13;;
16813;SDS011;8524;57.650;11.926;2023-05-19T12:47:28;1.67;;;1.30;;
16813;SDS011;8524;57.650;11.926;2023-05-19T12:50:00;2.77;;;1.53;;
16813;SDS011;8524;57.650;11.926;2023-05-19T12:52:28;2.10;;;1.60;;
16813;SDS011;8524;57.650;11.926;2023-05-19T12:55:01;1.30;;;1.20;;
16813;SDS011;8524;57.650;11.926;2023-05-19T12:57:33;1.20;;;1.07;;
16813;SDS011;8524;57.650;11.926;2023-05-19T13:00:02;1.07;;;0.97;;
16813;SDS011;8524;57.650;11.926;2023-05-19T13:02:32;1.77;;;1.17;;
16813;SDS011;8524;57.650;11.926;2023-05-19T13:04:59;1.83;;;1.43;;
16813;SDS011;8524;57.650;11.926;2023-05-19T13:07:26;4.27;;;3.97;;
16813;SDS011;8524;57.650;11.926;2023-05-19T13:09:53;1.40;;;1.30;;
16813;SDS011;8524;57.650;11.926;2023-05-19T13:12:21;1.33;;;1.23;;
16813;SDS011;8524;57.650;11.926;2023-05-19T13:14:50;1.33;;;1.10;;
16813;SDS011;8524;57.650;11.926;2023-05-19T13:17:17;1.60;;;1.40;;
16813;SDS011;8524;57.650;11.926;2023-05-19T13:19:44;1.83;;;1.20;;
16813;SDS011;8524;57.650;11.926;2023-05-19T13:22:11;1.57;;;1.33;;
16813;SDS011;8524;57.650;11.926;2023-05-19T13:24:38;1.40;;;1.27;;
16813;SDS011;8524;57.650;11.926;2023-05-19T13:27:05;1.67;;;1.30;;
16813;SDS011;8524;57.650;11.926;2023-05-19T13:29:32;1.50;;;1.40;;
16813;SDS011;8524;57.650;11.926;2023-05-19T13:32:01;1.30;;;1.20;;
16813;SDS011;8524;57.650;11.926;2023-05-19T13:34:27;2.60;;;1.50;;
16813;SDS011;8524;57.650;11.926;2023-05-19T13:36:54;1.48;;;1.35;;
16813;SDS011;8524;57.650;11.926;2023-05-19T13:39:21;1.80;;;1.40;;
16813;SDS011;8524;57.650;11.926;2023-05-19T13:41:48;1.50;;;1.30;;
16813;SDS011;8524;57.650;11.926;2023-05-19T13:44:15;1.80;;;1.60;;
16813;SDS011;8524;57.650;11.926;2023-05-19T13:46:42;2.90;;;1.47;;
16813;SDS011;8524;57.650;11.926;2023-05-19T13:49:11;1.73;;;1.40;;
16813;SDS011;8524;57.650;11.926;2023-05-19T13:51:39;1.60;;;1.30;;
16813;SDS011;8524;57.650;11.926;2023-05-19T13:54:07;2.17;;;1.40;;
16813;SDS011;8524;57.650;11.926;2023-05-19T13:56:34;4.50;;;1.60;;
16813;SDS011;8524;57.650;11.926;2023-05-19T13:59:01;1.63;;;1.53;;
16813;SDS011;8524;57.650;11.926;2023-05-19T14:01:29;1.37;;;1.27;;
16813;SDS011;8524;57.650;11.926;2023-05-19T14:03:56;1.77;;;1.43;;
16813;SDS011;8524;57.650;11.926;2023-05-19T14:06:25;2.77;;;1.30;;
16813;SDS011;8524;57.650;11.926;2023-05-19T14:08:52;1.90;;;1.47;;
16813;SDS011;8524;57.650;11.926;2023-05-19T14:11:19;1.70;;;1.40;;
16813;SDS011;8524;57.650;11.926;2023-05-19T14:13:47;1.20;;;1.10;;
16813;SDS011;8524;57.650;11.926;2023-05-19T14:16:14;1.50;;;1.37;;
16813;SDS011;8524;57.650;11.926;2023-05-19T14:18:41;2.53;;;1.50;;
16813;SDS011;8524;57.650;11.926;2023-05-19T14:21:08;1.50;;;1.40;;
16813;SDS011;8524;57.650;11.926;2023-05-19T14:23:36;1.73;;;1.43;;
16813;SDS011;8524;57.650;11.926;2023-05-19T14:26:03;1.90;;;1.30;;
16813;SDS011;8524;57.650;11.926;2023-05-19T14:28:30;2.20;;;1.50;;
16813;SDS011;8524;57.650;11.926;2023-05-19T14:30:58;1.60;;;1.40;;
16813;SDS011;8524;57.650;11.926;2023-05-19T14:33:25;1.60;;;1.27;;
16813;SDS011;8524;57.650;11.926;2023-05-19T14:35:52;1.97;;;1.37;;
16813;SDS011;8524;57.650;11.926;2023-05-19T14:38:19;2.53;;;1.50;;
16813;SDS011;8524;57.650;11.926;2023-05-19T14:40:47;1.30;;;1.20;;
16813;SDS011;8524;57.650;11.926;2023-05-19T14:43:14;2.10;;;1.47;;
16813;SDS011;8524;57.650;11.926;2023-05-19T14:45:41;1.70;;;1.43;;
16813;SDS011;8524;57.650;11.926;2023-05-19T14:48:09;1.47;;;1.30;;
16813;SDS011;8524;57.650;11.926;2023-05-19T14:50:36;1.67;;;1.37;;
16813;SDS011;8524;57.650;11.926;2023-05-19T14:53:03;1.70;;;1.60;;
16813;SDS011;8524;57.650;11.926;2023-05-19T14:55:30;1.70;;;1.47;;
16813;SDS011;8524;57.650;11.926;2023-05-19T14:57:59;2.23;;;1.87;;
16813;SDS011;8524;57.650;11.926;2023-05-19T15:00:26;2.00;;;1.60;;
16813;SDS011;8524;57.650;11.926;2023-05-19T15:02:53;2.07;;;1.60;;